createdAt,value
2023-04-21T00:01:44.781Z,7.60
2023-04-21T00:04:12.859Z,7.80
2023-04-21T00:06:41.123Z,6.80
2023-04-21T00:09:08.278Z,8.00
2023-04-21T00:11:35.014Z,7.60
2023-04-21T00:14:01.560Z,6.60
2023-04-21T00:16:28.350Z,6.40
2023-04-21T00:18:55.443Z,7.00
2023-04-21T00:21:22.392Z,6.90
2023-04-21T00:23:49.429Z,7.60
2023-04-21T00:26:16.372Z,7.80
2023-04-21T00:28:43.632Z,6.20
2023-04-21T00:31:10.326Z,4.60
2023-04-21T00:33:36.986Z,7.90
2023-04-21T00:36:04.159Z,6.90
2023-04-21T00:38:30.792Z,8.10
2023-04-21T00:40:57.546Z,4.70
2023-04-21T00:43:25.198Z,7.10
2023-04-21T00:45:54.117Z,7.30
2023-04-21T00:48:20.934Z,6.70
2023-04-21T00:50:47.507Z,9.50
2023-04-21T00:53:14.422Z,7.60
2023-04-21T00:55:41.063Z,6.60
2023-04-21T00:58:08.717Z,8.20
2023-04-21T01:00:36.038Z,7.10
2023-04-21T01:03:04.379Z,9.10
2023-04-21T01:05:31.611Z,8.20
2023-04-21T01:07:58.180Z,5.40
2023-04-21T01:10:25.181Z,8.60
2023-04-21T01:12:51.720Z,6.30
2023-04-21T01:15:18.669Z,6.70
2023-04-21T01:17:45.456Z,7.90
2023-04-21T01:20:13.991Z,8.40
2023-04-21T01:22:41.756Z,7.30
2023-04-21T01:25:09.112Z,6.90
2023-04-21T01:27:36.286Z,8.80
2023-04-21T01:30:03.729Z,5.70
2023-04-21T01:32:30.931Z,6.60
2023-04-21T01:34:58.228Z,7.50
2023-04-21T01:37:27.837Z,9.00
2023-04-21T01:39:55.796Z,7.80
2023-04-21T01:42:23.680Z,6.20
2023-04-21T01:44:50.519Z,7.00
2023-04-21T01:47:18.092Z,9.40
2023-04-21T01:49:45.860Z,9.90
2023-04-21T01:52:12.597Z,8.30
2023-04-21T01:54:39.632Z,7.20
2023-04-21T01:57:07.428Z,6.90
2023-04-21T01:59:34.143Z,6.10
2023-04-21T02:02:02.962Z,6.10
2023-04-21T02:04:32.782Z,7.00
2023-04-21T02:07:00.028Z,9.10
2023-04-21T02:09:26.646Z,5.60
2023-04-21T02:11:54.701Z,6.20
2023-04-21T02:14:21.553Z,8.30
2023-04-21T02:16:48.400Z,7.90
2023-04-21T02:19:15.229Z,5.50
2023-04-21T02:21:41.967Z,6.60
2023-04-21T02:24:08.546Z,6.40
2023-04-21T02:26:35.279Z,7.40
2023-04-21T02:29:02.501Z,8.80
2023-04-21T02:31:29.379Z,9.10
2023-04-21T02:33:56.300Z,7.50
2023-04-21T02:36:23.035Z,5.20
2023-04-21T02:38:50.588Z,6.90
2023-04-21T02:41:17.185Z,5.60
2023-04-21T02:43:43.971Z,8.90
2023-04-21T02:46:10.748Z,7.90
2023-04-21T02:48:37.440Z,9.30
2023-04-21T02:51:04.187Z,7.80
2023-04-21T02:53:31.337Z,5.00
2023-04-21T02:55:58.084Z,6.70
2023-04-21T02:58:24.918Z,6.30
2023-04-21T03:00:51.945Z,9.20
2023-04-21T03:03:19.116Z,6.30
2023-04-21T03:05:46.279Z,7.10
2023-04-21T03:08:13.214Z,9.60
2023-04-21T03:10:39.762Z,9.20
2023-04-21T03:13:06.476Z,7.20
2023-04-21T03:15:33.131Z,6.70
2023-04-21T03:18:01.679Z,7.90
2023-04-21T03:20:28.676Z,7.80
2023-04-21T03:22:55.499Z,5.60
2023-04-21T03:25:22.166Z,6.20
2023-04-21T03:27:50.013Z,7.00
2023-04-21T03:32:44.552Z,6.80
2023-04-21T03:35:11.468Z,7.60
2023-04-21T03:37:37.984Z,8.90
2023-04-21T03:40:05.655Z,10.30
2023-04-21T03:42:32.405Z,5.60
2023-04-21T03:45:06.022Z,6.40
2023-04-21T03:47:33.984Z,7.50
2023-04-21T03:50:00.603Z,8.50
2023-04-21T03:52:27.164Z,8.60
2023-04-21T03:54:53.994Z,10.30
2023-04-21T03:57:20.726Z,6.70
2023-04-21T03:59:47.356Z,8.60
2023-04-21T04:02:14.178Z,9.60
2023-04-21T04:04:41.073Z,10.60
2023-04-21T04:07:09.534Z,12.30
2023-04-21T04:09:36.163Z,7.30
2023-04-21T04:12:03.463Z,11.20
2023-04-21T04:14:30.096Z,7.50
2023-04-21T04:16:58.649Z,9.10
2023-04-21T04:19:31.112Z,10.00
2023-04-21T04:21:59.601Z,8.60
2023-04-21T04:24:26.345Z,13.60
2023-04-21T04:26:54.312Z,10.60
2023-04-21T04:29:22.172Z,4.60
2023-04-21T04:31:50.262Z,7.60
2023-04-21T04:34:17.243Z,6.10
2023-04-21T04:36:44.503Z,10.00
2023-04-21T04:39:11.899Z,10.70
2023-04-21T04:41:38.584Z,15.90
2023-04-21T04:44:05.586Z,20.10
2023-04-21T04:46:32.524Z,21.80
2023-04-21T04:49:00.628Z,23.90
2023-04-21T04:51:27.332Z,30.20
2023-04-21T04:53:53.978Z,28.00
2023-04-21T04:56:21.446Z,26.10
2023-04-21T04:58:48.073Z,32.10
2023-04-21T05:01:16.108Z,28.80
2023-04-21T05:03:43.428Z,23.80
2023-04-21T05:06:10.462Z,24.10
2023-04-21T05:08:37.177Z,19.80
2023-04-21T05:11:04.022Z,28.20
2023-04-21T05:13:30.773Z,24.00
2023-04-21T05:15:58.333Z,27.30
2023-04-21T05:18:25.175Z,26.50
2023-04-21T05:20:51.816Z,21.20
2023-04-21T05:23:18.658Z,21.10
2023-04-21T05:25:45.498Z,20.00
2023-04-21T05:28:12.053Z,20.10
2023-04-21T05:30:38.778Z,21.60
2023-04-21T05:33:05.683Z,17.70
2023-04-21T05:35:33.650Z,24.10
2023-04-21T05:38:01.550Z,18.20
2023-04-21T05:40:28.296Z,16.90
2023-04-21T05:42:55.142Z,18.80
2023-04-21T05:45:21.779Z,19.80
2023-04-21T05:47:48.443Z,15.70
2023-04-21T05:50:15.970Z,14.90
2023-04-21T05:52:42.622Z,10.80
2023-04-21T05:55:09.355Z,13.40
2023-04-21T05:57:35.946Z,12.60
2023-04-21T06:00:03.886Z,11.50
2023-04-21T06:02:32.102Z,11.30
2023-04-21T06:04:59.344Z,14.30
2023-04-21T06:07:26.636Z,13.70
2023-04-21T06:09:53.281Z,14.20
2023-04-21T06:12:19.920Z,9.30
2023-04-21T06:14:46.559Z,10.80
2023-04-21T06:17:16.564Z,13.00
2023-04-21T06:19:44.050Z,8.40
2023-04-21T06:22:10.768Z,8.50
2023-04-21T06:24:37.406Z,10.80
2023-04-21T06:27:10.300Z,8.20
2023-04-21T06:29:37.037Z,8.70
2023-04-21T06:32:03.845Z,10.70
2023-04-21T06:34:30.505Z,8.30
2023-04-21T06:36:57.353Z,9.50
2023-04-21T06:39:23.969Z,8.20
2023-04-21T06:41:50.734Z,6.70
2023-04-21T06:44:18.249Z,9.00
2023-04-21T06:46:45.230Z,6.80
2023-04-21T06:49:12.392Z,10.10
2023-04-21T06:51:39.442Z,8.40
2023-04-21T06:56:34.989Z,5.10
2023-04-21T06:59:01.829Z,6.40
2023-04-21T07:01:28.646Z,8.10
2023-04-21T07:03:55.634Z,6.20
2023-04-21T07:06:22.446Z,6.20
2023-04-21T07:08:49.097Z,5.80
2023-04-21T07:11:15.720Z,6.40
2023-04-21T07:13:42.297Z,4.50
2023-04-21T07:16:09.265Z,5.30
2023-04-21T07:18:36.255Z,8.10
2023-04-21T07:21:03.097Z,5.30
2023-04-21T07:23:29.952Z,4.70
2023-04-21T07:25:58.744Z,6.10
2023-04-21T07:28:26.054Z,4.80
2023-04-21T07:30:52.748Z,4.70
2023-04-21T07:33:19.302Z,5.10
2023-04-21T07:35:46.002Z,5.90
2023-04-21T07:38:12.749Z,6.10
2023-04-21T07:40:39.348Z,5.40
2023-04-21T07:43:06.014Z,5.00
2023-04-21T07:45:32.977Z,3.90
2023-04-21T07:47:59.896Z,4.00
2023-04-21T07:50:26.646Z,7.20
2023-04-21T07:52:53.285Z,4.90
2023-04-21T07:55:20.225Z,4.90
2023-04-21T07:57:47.031Z,6.10
2023-04-21T08:00:14.725Z,6.60
2023-04-21T08:02:41.553Z,4.20
2023-04-21T08:05:08.812Z,5.10
2023-04-21T08:07:35.972Z,3.80
2023-04-21T08:10:03.023Z,5.10
2023-04-21T08:12:29.779Z,6.40
2023-04-21T08:14:56.522Z,5.90
2023-04-21T08:17:23.404Z,4.40
2023-04-21T08:19:50.807Z,3.50
2023-04-21T08:22:17.550Z,5.30
2023-04-21T08:24:44.376Z,4.90
2023-04-21T08:27:11.253Z,3.40
2023-04-21T08:29:38.021Z,4.40
2023-04-21T08:32:05.491Z,6.00
2023-04-21T08:34:32.474Z,4.40
2023-04-21T08:36:59.280Z,4.70
2023-04-21T08:39:26.365Z,5.20
2023-04-21T08:41:56.087Z,4.60
2023-04-21T08:44:23.031Z,5.10
2023-04-21T08:46:50.993Z,4.50
2023-04-21T08:49:19.454Z,4.10
2023-04-21T08:51:46.840Z,4.40
2023-04-21T08:54:13.464Z,5.80
2023-04-21T08:56:40.414Z,5.60
2023-04-21T08:59:07.160Z,4.50
2023-04-21T09:01:39.250Z,5.80
2023-04-21T09:04:16.556Z,6.00
2023-04-21T09:06:43.644Z,5.20
2023-04-21T09:11:42.435Z,5.90
2023-04-21T09:14:10.743Z,3.80
2023-04-21T09:16:37.746Z,7.20
2023-04-21T09:19:14.075Z,6.70
2023-04-21T09:21:42.940Z,7.10
2023-04-21T09:24:12.461Z,5.70
2023-04-21T09:26:40.086Z,9.70
2023-04-21T09:31:39.098Z,8.70
2023-04-21T09:34:17.745Z,6.90
2023-04-21T09:36:44.687Z,7.20
2023-04-21T09:41:41.401Z,8.80
2023-04-21T09:44:08.294Z,8.90
2023-04-21T09:46:36.116Z,5.80
2023-04-21T09:49:03.411Z,6.30
2023-04-21T09:51:52.741Z,8.70
2023-04-21T09:57:04.004Z,6.30
2023-04-21T09:59:37.547Z,6.90
2023-04-21T10:02:05.388Z,9.70
2023-04-21T10:04:33.479Z,6.20
2023-04-21T10:07:00.704Z,6.50
2023-04-21T10:09:36.340Z,8.20
2023-04-21T10:12:03.273Z,4.90
2023-04-21T10:14:30.107Z,6.40
2023-04-21T10:17:03.504Z,5.90
2023-04-21T10:19:35.150Z,6.30
2023-04-21T10:22:01.681Z,6.30
2023-04-21T10:24:29.671Z,8.10
2023-04-21T10:26:59.076Z,5.10
2023-04-21T10:29:43.695Z,6.10
2023-04-21T10:35:24.135Z,7.60
2023-04-21T10:37:51.473Z,7.00
2023-04-21T10:40:42.950Z,6.00
2023-04-21T10:43:43.006Z,9.50
2023-04-21T10:46:31.684Z,7.40
2023-04-21T10:49:30.810Z,4.40
2023-04-21T10:51:57.645Z,7.30
2023-04-21T10:54:27.817Z,6.40
2023-04-21T10:56:55.600Z,7.40
2023-04-21T10:59:22.863Z,5.20
2023-04-21T11:01:49.472Z,6.60
2023-04-21T11:04:17.815Z,4.30
2023-04-21T11:07:09.893Z,5.40
2023-04-21T11:09:37.152Z,4.90
2023-04-21T11:12:07.013Z,4.70
2023-04-21T11:14:37.603Z,5.00
2023-04-21T11:17:05.313Z,7.30
2023-04-21T11:19:32.091Z,5.20
2023-04-21T11:21:58.721Z,6.90
2023-04-21T11:24:25.768Z,4.10
2023-04-21T11:26:52.511Z,6.50
2023-04-21T11:29:20.272Z,5.00
2023-04-21T11:31:49.115Z,6.10
2023-04-21T11:36:43.776Z,7.50
2023-04-21T11:39:15.915Z,4.70
2023-04-21T11:41:44.343Z,6.10
2023-04-21T11:44:11.787Z,7.40
2023-04-21T11:46:47.475Z,5.00
2023-04-21T11:49:15.301Z,4.80
2023-04-21T11:51:42.660Z,5.80
2023-04-21T11:54:12.777Z,7.40
2023-04-21T11:56:40.133Z,6.30
2023-04-21T11:59:11.591Z,6.50
2023-04-21T12:01:48.252Z,7.50
2023-04-21T12:04:16.664Z,6.40
2023-04-21T12:06:45.317Z,4.40
2023-04-21T12:09:18.920Z,5.60
2023-04-21T12:11:49.780Z,6.70
2023-04-21T12:14:18.446Z,4.40
2023-04-21T12:16:48.087Z,5.90
2023-04-21T12:19:25.843Z,4.90
2023-04-21T12:21:55.067Z,6.60
2023-04-21T12:24:22.129Z,6.60
2023-04-21T12:26:50.485Z,5.60
2023-04-21T12:29:17.202Z,6.90
2023-04-21T12:31:43.850Z,5.70
2023-04-21T12:34:10.784Z,4.80
2023-04-21T12:36:38.463Z,7.00
2023-04-21T12:39:05.926Z,6.10
2023-04-21T12:41:34.112Z,7.90
2023-04-21T12:44:01.070Z,6.20
2023-04-21T12:46:28.053Z,6.30
2023-04-21T12:48:55.646Z,6.60
2023-04-21T12:51:22.387Z,6.90
2023-04-21T12:53:49.736Z,4.90
2023-04-21T12:56:16.322Z,7.60
2023-04-21T12:58:42.918Z,6.50
2023-04-21T13:01:11.552Z,5.40
2023-04-21T13:03:39.525Z,5.50
2023-04-21T13:06:07.240Z,6.00
2023-04-21T13:08:34.250Z,5.80
2023-04-21T13:11:01.131Z,4.70
2023-04-21T13:13:27.831Z,6.20
2023-04-21T13:15:54.597Z,5.90
2023-04-21T13:18:21.977Z,9.30
2023-04-21T13:20:48.800Z,4.90
2023-04-21T13:23:15.639Z,6.10
2023-04-21T13:25:44.329Z,6.50
2023-04-21T13:28:11.067Z,4.70
2023-04-21T13:30:37.709Z,5.30
2023-04-21T13:33:05.307Z,5.60
2023-04-21T13:35:34.613Z,6.10
2023-04-21T13:38:01.312Z,4.60
2023-04-21T13:40:27.947Z,6.80
2023-04-21T13:42:54.829Z,4.40
2023-04-21T13:45:21.531Z,7.00
2023-04-21T13:47:48.425Z,4.60
2023-04-21T13:50:15.219Z,5.40
2023-04-21T13:52:41.856Z,4.70
2023-04-21T13:55:09.209Z,4.30
2023-04-21T13:57:35.848Z,6.30
2023-04-21T14:00:05.447Z,5.30
2023-04-21T14:02:32.311Z,4.80
2023-04-21T14:04:59.755Z,5.20
2023-04-21T14:07:26.924Z,6.00
2023-04-21T14:09:53.959Z,5.90
2023-04-21T14:12:21.096Z,5.10
2023-04-21T14:14:47.851Z,6.00
2023-04-21T14:17:16.550Z,6.80
2023-04-21T14:19:43.378Z,6.90
2023-04-21T14:22:10.154Z,4.80
2023-04-21T14:24:36.891Z,3.90
2023-04-21T14:27:03.707Z,5.60
2023-04-21T14:29:30.644Z,3.70
2023-04-21T14:31:58.756Z,4.80
2023-04-21T14:34:25.801Z,4.50
2023-04-21T14:36:52.705Z,5.20
2023-04-21T14:39:19.668Z,5.40
2023-04-21T14:41:48.746Z,6.10
2023-04-21T14:46:48.028Z,5.50
2023-04-21T14:49:20.774Z,5.90
2023-04-21T14:51:49.042Z,5.90
2023-04-21T14:54:16.212Z,7.60
2023-04-21T14:56:42.802Z,8.50
2023-04-21T14:59:12.534Z,5.70
2023-04-21T15:01:39.120Z,5.90
2023-04-21T15:04:06.198Z,7.00
2023-04-21T15:06:33.096Z,6.40
2023-04-21T15:09:00.000Z,5.20
2023-04-21T15:11:26.736Z,4.40
2023-04-21T15:13:53.688Z,5.00
2023-04-21T15:16:20.325Z,6.10
2023-04-21T15:18:47.079Z,6.80
2023-04-21T15:21:13.587Z,7.80
2023-04-21T15:23:40.446Z,4.90
2023-04-21T15:26:07.018Z,5.70
2023-04-21T15:28:35.469Z,4.80
2023-04-21T15:31:02.330Z,8.50
2023-04-21T15:33:29.247Z,6.30
2023-04-21T15:35:55.977Z,6.80
2023-04-21T15:38:22.587Z,5.50
2023-04-21T15:41:00.226Z,6.10
2023-04-21T15:43:28.499Z,6.80
2023-04-21T15:45:55.390Z,5.90
2023-04-21T15:48:22.627Z,7.70
2023-04-21T15:50:49.236Z,6.40
2023-04-21T15:53:17.912Z,8.60
2023-04-21T15:55:46.603Z,7.50
2023-04-21T15:58:13.219Z,6.30
2023-04-21T16:00:43.148Z,8.40
2023-04-21T16:03:10.430Z,8.10
2023-04-21T16:05:37.471Z,7.20
2023-04-21T16:08:04.959Z,6.20
2023-04-21T16:10:31.661Z,6.30
2023-04-21T16:12:58.280Z,5.50
2023-04-21T16:15:25.409Z,6.70
2023-04-21T16:17:52.955Z,12.70
2023-04-21T16:20:20.243Z,8.70
2023-04-21T16:22:49.882Z,8.20
2023-04-21T16:25:18.439Z,7.70
2023-04-21T16:27:45.299Z,6.40
2023-04-21T16:30:12.229Z,5.50
2023-04-21T16:32:39.194Z,9.50
2023-04-21T16:35:10.042Z,8.50
2023-04-21T16:37:54.329Z,9.70
2023-04-21T16:40:22.412Z,7.40
2023-04-21T16:42:50.751Z,5.20
2023-04-21T16:45:18.699Z,10.50
